Time;durP1;ratioP1;P1;durP2;ratioP2;P2;SDS_P1;SDS_P2;PMS_P1;PMS_P2;Temp;Humidity;BMP_temperature;BMP_pressure;BME280_temperature;BME280_humidity;BME280_pressure;Samples;Min_cycle;Max_cycle;Signal;HPM_P1;HPM_P2
2023/03/13 00:00:43;;;;;;;28.33;6.85;;;;;;;8.90;100.00;100198.56;5063524;28;20064;-77
2023/03/13 00:03:09;;;;;;;29.50;6.05;;;;;;;8.87;100.00;100195.34;5070374;28;20081;-77
2023/03/13 00:05:35;;;;;;;20.65;5.10;;;;;;;8.85;100.00;100186.75;5071039;28;20380;-76
2023/03/13 00:08:00;;;;;;;25.30;6.28;;;;;;;8.80;100.00;100179.22;5070319;28;20421;-76
2023/03/13 00:10:26;;;;;;;27.67;6.38;;;;;;;8.79;100.00;100178.38;5052755;28;20120;-76
2023/03/13 00:12:54;;;;;;;28.67;6.00;;;;;;;8.78;100.00;100171.47;5054439;28;20028;-79
2023/03/13 00:15:19;;;;;;;35.60;7.32;;;;;;;8.76;100.00;100162.88;5070019;28;20017;-75
2023/03/13 00:17:45;;;;;;;35.83;6.97;;;;;;;8.73;100.00;100157.88;5072136;28;20031;-76
2023/03/13 00:20:11;;;;;;;29.00;6.63;;;;;;;8.72;100.00;100150.13;5070259;28;20925;-76
2023/03/13 00:22:36;;;;;;;28.58;6.07;;;;;;;8.70;100.00;100139.75;5069525;28;20128;-76
2023/03/13 00:25:01;;;;;;;31.10;6.53;;;;;;;8.70;100.00;100136.28;5071802;28;20021;-76
2023/03/13 00:27:27;;;;;;;28.92;6.25;;;;;;;8.69;100.00;100134.63;5071579;28;20025;-76
2023/03/13 00:29:52;;;;;;;32.25;6.57;;;;;;;8.67;100.00;100132.13;5071254;28;20021;-76
2023/03/13 00:32:17;;;;;;;28.40;6.97;;;;;;;8.67;100.00;100126.88;5056025;28;20699;-78
2023/03/13 00:34:43;;;;;;;35.10;6.88;;;;;;;8.64;100.00;100119.25;5071766;28;20039;-78
2023/03/13 00:37:08;;;;;;;30.83;6.55;;;;;;;8.64;100.00;100106.13;5069548;28;20438;-75
2023/03/13 00:39:33;;;;;;;31.15;7.13;;;;;;;8.64;100.00;100100.06;5071763;28;20657;-77
2023/03/13 00:42:02;;;;;;;27.35;6.90;;;;;;;8.65;100.00;100091.25;5068730;28;20553;-76
2023/03/13 00:44:28;;;;;;;33.50;6.85;;;;;;;8.64;100.00;100086.94;5068973;28;20035;-76
2023/03/13 00:46:53;;;;;;;28.67;7.20;;;;;;;8.64;100.00;100085.16;5070252;28;20020;-76
2023/03/13 00:49:19;;;;;;;36.97;7.28;;;;;;;8.63;100.00;100083.50;5067900;28;20103;-76
2023/03/13 00:51:44;;;;;;;31.70;6.97;;;;;;;8.65;100.00;100078.97;5051443;28;20028;-76
2023/03/13 00:54:09;;;;;;;30.13;6.80;;;;;;;8.69;100.00;100069.91;5052328;28;20021;-76
2023/03/13 00:56:35;;;;;;;30.80;6.82;;;;;;;8.70;100.00;100068.09;5051245;28;20033;-76
2023/03/13 00:59:01;;;;;;;28.48;6.40;;;;;;;8.70;100.00;100061.06;5052086;28;20024;-76
2023/03/13 01:01:34;;;;;;;30.67;7.15;;;;;;;8.71;100.00;100059.28;5068209;28;20024;-76
2023/03/13 01:04:05;;;;;;;30.70;7.32;;;;;;;8.71;100.00;100060.13;5069436;28;20033;-76
2023/03/13 01:06:33;;;;;;;30.67;6.97;;;;;;;8.75;100.00;100053.69;5048879;28;20028;-76
2023/03/13 01:08:59;;;;;;;27.88;7.20;;;;;;;8.77;100.00;100036.03;5032275;28;20025;-75
2023/03/13 01:11:27;;;;;;;28.25;6.93;;;;;;;8.81;100.00;100027.94;5047607;28;20477;-76
2023/03/13 01:13:57;;;;;;;32.00;7.03;;;;;;;8.82;100.00;100029.59;5057501;28;20035;-76
2023/03/13 01:16:24;;;;;;;28.85;7.38;;;;;;;8.84;100.00;100023.28;5068620;28;20033;-76
2023/03/13 01:18:53;;;;;;;27.25;7.30;;;;;;;8.86;100.00;100023.16;5050446;28;20020;-76
2023/03/13 01:21:19;;;;;;;25.67;7.38;;;;;;;8.89;100.00;100020.28;5069085;28;20024;-76
2023/03/13 01:23:46;;;;;;;20.92;6.47;;;;;;;8.91;100.00;100003.47;5069101;28;20389;-76
2023/03/13 01:26:11;;;;;;;29.08;8.30;;;;;;;8.92;100.00;99989.41;5060005;28;20570;-76
2023/03/13 01:28:37;;;;;;;22.88;6.30;;;;;;;8.95;100.00;99991.75;5069727;28;20029;-76
2023/03/13 01:31:30;;;;;;;20.90;6.88;;;;;;;8.98;100.00;99988.91;5069742;28;20477;-76
2023/03/13 01:33:57;;;;;;;;;;;;;;;9.03;100.00;99991.13;5049716;28;20036;-77
2023/03/13 01:36:23;;;;;;;21.63;6.43;;;;;;;9.06;100.00;99978.59;5052088;28;20390;-77
2023/03/13 01:38:51;;;;;;;21.40;6.18;;;;;;;9.09;100.00;99983.59;5070053;28;20469;-77
2023/03/13 01:41:18;;;;;;;21.45;7.07;;;;;;;9.14;100.00;99972.72;5068575;28;20056;-77
2023/03/13 01:43:45;;;;;;;18.52;6.63;;;;;;;9.16;100.00;99965.56;5052328;28;20024;-75
2023/03/13 01:46:15;;;;;;;21.15;5.63;;;;;;;9.20;100.00;99972.22;5067621;28;20024;-75
2023/03/13 01:49:03;;;;;;;18.77;5.50;;;;;;;9.24;100.00;99957.91;5073177;28;20029;-76
2023/03/13 01:51:36;;;;;;;20.15;5.72;;;;;;;9.28;100.00;99959.31;5068496;28;20028;-75
2023/03/13 01:54:14;;;;;;;19.15;5.57;;;;;;;9.30;100.00;99957.41;5063295;28;20024;-76
2023/03/13 01:56:52;;;;;;;18.38;4.80;;;;;;;9.34;100.00;99952.72;5069270;28;20077;-75
2023/03/13 01:59:23;;;;;;;15.00;5.10;;;;;;;9.39;100.00;99940.88;5067300;28;20054;-75
2023/03/13 02:01:52;;;;;;;14.93;4.60;;;;;;;9.43;100.00;99937.03;5068581;28;20020;-76
2023/03/13 02:04:19;;;;;;;14.57;5.05;;;;;;;9.50;100.00;99915.50;5068127;28;20029;-75
2023/03/13 02:06:48;;;;;;;15.07;4.25;;;;;;;9.51;100.00;99912.75;5049817;28;20024;-76
2023/03/13 02:09:18;;;;;;;13.20;5.00;;;;;;;9.55;100.00;99908.06;5068397;28;20028;-76
2023/03/13 02:11:51;;;;;;;14.43;4.43;;;;;;;9.59;100.00;99904.22;5058380;28;20104;-75
2023/03/13 02:14:21;;;;;;;13.32;4.75;;;;;;;9.63;100.00;99884.63;5048014;28;20029;-75
2023/03/13 02:16:50;;;;;;;14.07;4.30;;;;;;;9.65;100.00;99885.34;5049092;28;20082;-75
2023/03/13 02:19:34;;;;;;;12.57;4.50;;;;;;;9.69;100.00;99878.84;5065605;28;20035;-76
2023/03/13 02:22:30;;;;;;;14.80;4.68;;;;;;;9.72;100.00;99860.19;5067525;28;20036;-75
2023/03/13 02:25:08;;;;;;;13.05;4.85;;;;;;;9.74;100.00;99845.13;5068664;28;20027;-76
2023/03/13 02:27:34;;;;;;;13.40;5.07;;;;;;;9.76;100.00;99837.97;5065898;28;20123;-76
2023/03/13 02:30:00;;;;;;;11.90;4.70;;;;;;;9.77;100.00;99839.63;5049085;28;20254;-75
2023/03/13 02:32:28;;;;;;;11.30;5.57;;;;;;;9.82;100.00;99841.84;5069123;28;20036;-76
2023/03/13 02:34:57;;;;;;;13.80;5.63;;;;;;;9.82;100.00;99847.94;5068416;28;20098;-76
2023/03/13 02:37:25;;;;;;;10.48;5.60;;;;;;;9.85;100.00;99842.41;5050903;28;20024;-75
2023/03/13 02:39:55;;;;;;;9.07;5.32;;;;;;;9.88;100.00;99842.13;5067905;28;20044;-76
2023/03/13 02:42:22;;;;;;;15.20;5.88;;;;;;;9.89;100.00;99842.97;5049663;28;20446;-75
2023/03/13 02:44:49;;;;;;;11.93;5.97;;;;;;;9.91;100.00;99825.28;5051510;28;20020;-75
2023/03/13 02:47:19;;;;;;;10.13;5.82;;;;;;;9.94;100.00;99838.97;5059886;28;20032;-76
2023/03/13 02:49:45;;;;;;;11.07;6.10;;;;;;;9.99;100.00;99828.88;5057778;28;20024;-80
2023/03/13 02:52:26;;;;;;;14.85;6.80;;;;;;;10.04;100.00;99825.88;5072608;28;20106;-76
2023/03/13 02:55:01;;;;;;;15.68;7.15;;;;;;;10.07;100.00;99832.66;5067767;28;20059;-76
2023/03/13 02:57:26;;;;;;;12.15;6.40;;;;;;;10.13;100.00;99829.47;5049446;28;20065;-76
2023/03/13 02:59:52;;;;;;;11.45;6.38;;;;;;;10.15;100.00;99832.81;5050386;28;20028;-76
2023/03/13 03:02:18;;;;;;;12.32;7.10;;;;;;;10.20;100.00;99835.84;5068459;28;20024;-76
2023/03/13 03:04:43;;;;;;;11.57;6.55;;;;;;;10.19;100.00;99836.81;5061616;28;20032;-76
2023/03/13 03:07:09;;;;;;;8.88;5.75;;;;;;;10.22;100.00;99839.22;5071119;28;20509;-77
2023/03/13 03:09:34;;;;;;;11.95;6.32;;;;;;;10.23;100.00;99841.69;5054207;28;20016;-75
2023/03/13 03:11:59;;;;;;;10.68;6.38;;;;;;;10.27;100.00;99834.38;5053196;28;20024;-76
2023/03/13 03:14:25;;;;;;;11.18;6.50;;;;;;;10.28;100.00;99838.66;5053494;28;20407;-75
2023/03/13 03:16:50;;;;;;;12.25;6.82;;;;;;;10.31;100.00;99833.97;5072706;28;20036;-76
2023/03/13 03:19:16;;;;;;;11.10;6.70;;;;;;;10.32;100.00;99834.78;5070645;28;20020;-76
2023/03/13 03:21:41;;;;;;;11.80;6.90;;;;;;;10.33;100.00;99836.44;5071270;28;20044;-77
2023/03/13 03:24:07;;;;;;;9.63;6.40;;;;;;;10.37;100.00;99829.94;5063682;28;20078;-75
2023/03/13 03:26:32;;;;;;;9.70;6.43;;;;;;;10.38;100.00;99828.97;5053769;28;20043;-75
2023/03/13 03:28:58;;;;;;;7.75;6.15;;;;;;;10.40;100.00;99821.78;5071720;28;20472;-77
2023/03/13 03:31:23;;;;;;;10.35;6.60;;;;;;;10.42;100.00;99812.00;5071043;28;20024;-77
2023/03/13 03:33:49;;;;;;;11.02;7.00;;;;;;;10.44;100.00;99822.38;5055199;28;20024;-75
2023/03/13 03:36:17;;;;;;;7.82;6.35;;;;;;;10.43;100.00;99826.78;5053321;28;20024;-76
2023/03/13 03:38:44;;;;;;;10.95;7.10;;;;;;;10.45;100.00;99818.78;5070356;28;20028;-78
2023/03/13 03:41:12;;;;;;;9.02;6.97;;;;;;;10.47;100.00;99828.19;5051576;28;20077;-75
2023/03/13 03:43:38;;;;;;;9.27;7.32;;;;;;;10.51;100.00;99813.78;5052811;28;20104;-75
2023/03/13 03:46:04;;;;;;;9.38;7.07;;;;;;;10.53;100.00;99817.09;5051962;28;20039;-76
2023/03/13 03:48:29;;;;;;;8.90;7.32;;;;;;;10.55;100.00;99811.69;5052919;28;20048;-76
2023/03/13 03:50:55;;;;;;;8.10;7.20;;;;;;;10.55;100.00;99824.84;5071418;28;20449;-76
2023/03/13 03:53:20;;;;;;;10.05;7.60;;;;;;;10.58;100.00;99814.88;5071849;28;20036;-75
2023/03/13 03:55:45;;;;;;;11.00;7.65;;;;;;;10.60;100.00;99820.84;5072435;28;20435;-76
2023/03/13 03:58:11;;;;;;;10.95;8.10;;;;;;;10.62;100.00;99815.44;5057029;28;20507;-75
2023/03/13 04:00:36;;;;;;;9.32;7.22;;;;;;;10.64;100.00;99810.88;5058632;28;20028;-75
2023/03/13 04:03:02;;;;;;;12.23;7.95;;;;;;;10.70;100.00;99812.09;5072011;28;20477;-76
2023/03/13 04:05:27;;;;;;;9.23;7.97;;;;;;;10.71;100.00;99803.25;5071313;28;20036;-76
2023/03/13 04:07:52;;;;;;;9.23;8.32;;;;;;;10.73;100.00;99807.38;5070711;28;20046;-75
2023/03/13 04:10:18;;;;;;;9.35;7.47;;;;;;;10.76;100.00;99798.38;5070376;28;20082;-76
2023/03/13 04:12:43;;;;;;;8.73;7.85;;;;;;;10.79;100.00;99803.38;5051804;28;20028;-81
2023/03/13 04:15:09;;;;;;;10.32;8.27;;;;;;;10.79;100.00;99806.00;5051882;28;20040;-76
2023/03/13 04:17:35;;;;;;;12.70;7.43;;;;;;;10.87;100.00;99801.72;5066276;28;20027;-76
2023/03/13 04:20:01;;;;;;;10.27;7.10;;;;;;;10.90;100.00;99787.44;5070352;28;20036;-76
2023/03/13 04:22:26;;;;;;;10.63;7.20;;;;;;;10.96;100.00;99777.19;5069329;28;20024;-74
2023/03/13 04:24:52;;;;;;;9.25;6.78;;;;;;;11.02;100.00;99761.78;5053154;28;20028;-76
2023/03/13 04:27:17;;;;;;;10.38;6.15;;;;;;;11.07;100.00;99773.53;5070789;28;20021;-76
2023/03/13 04:29:43;;;;;;;7.72;6.28;;;;;;;11.10;100.00;99762.72;5048579;28;20024;-76
2023/03/13 04:32:09;;;;;;;8.55;6.18;;;;;;;11.14;100.00;99771.16;5050691;28;20039;-75
2023/03/13 04:34:35;;;;;;;9.27;5.85;;;;;;;11.19;100.00;99751.31;5071020;28;20036;-76
2023/03/13 04:37:00;;;;;;;11.15;5.50;;;;;;;11.23;100.00;99746.63;5052473;28;20037;-77
2023/03/13 04:39:26;;;;;;;6.90;5.45;;;;;;;11.26;100.00;99743.69;5052541;28;20031;-77
2023/03/13 04:41:55;;;;;;;10.27;5.63;;;;;;;11.30;100.00;99743.25;5070419;28;20024;-79
2023/03/13 04:44:21;;;;;;;9.35;5.25;;;;;;;11.36;100.00;99746.28;5070638;28;20083;-76
2023/03/13 04:46:47;;;;;;;8.05;4.70;;;;;;;11.40;100.00;99739.75;5068956;28;20032;-77
2023/03/13 04:49:13;;;;;;;8.30;5.57;;;;;;;11.38;100.00;99733.78;5069615;28;20033;-77
2023/03/13 04:51:43;;;;;;;7.25;4.70;;;;;;;11.40;100.00;99737.13;5053652;28;20138;-77
2023/03/13 04:54:08;;;;;;;5.43;4.28;;;;;;;11.40;100.00;99731.84;5069561;28;20036;-77
2023/03/13 04:56:34;;;;;;;9.57;4.40;;;;;;;11.44;100.00;99743.75;5070602;28;20447;-78
2023/03/13 04:59:00;;;;;;;7.13;4.80;;;;;;;11.48;100.00;99742.47;5052746;28;20024;-76
2023/03/13 05:01:25;;;;;;;5.85;4.30;;;;;;;11.50;100.00;99740.53;5070275;28;20484;-76
2023/03/13 05:03:50;;;;;;;7.15;4.20;;;;;;;11.50;100.00;99724.72;5063491;28;20025;-76
2023/03/13 05:06:16;;;;;;;9.18;4.47;;;;;;;11.50;100.00;99727.34;5050828;28;20060;-76
2023/03/13 05:08:41;;;;;;;4.82;3.72;;;;;;;11.56;100.00;99716.22;5051376;28;20078;-76
2023/03/13 05:11:07;;;;;;;8.07;3.80;;;;;;;11.59;100.00;99706.22;5048853;28;20108;-76
2023/03/13 05:13:33;;;;;;;6.03;3.53;;;;;;;11.67;100.00;99712.56;5061877;28;20024;-77
2023/03/13 05:15:58;;;;;;;10.40;3.80;;;;;;;11.70;100.00;99702.56;5069037;28;20666;-76
2023/03/13 05:18:23;;;;;;;9.40;4.00;;;;;;;11.73;100.00;99728.63;5050873;28;20047;-76
2023/03/13 05:20:49;;;;;;;10.40;3.92;;;;;;;11.76;100.00;99714.31;5060280;28;20024;-76
2023/03/13 05:23:14;;;;;;;6.38;3.58;;;;;;;11.74;100.00;99714.47;5049428;28;20025;-77
2023/03/13 05:25:40;;;;;;;9.25;3.90;;;;;;;11.77;100.00;99713.34;5050937;28;20040;-80
2023/03/13 05:28:05;;;;;;;8.85;3.83;;;;;;;11.76;100.00;99696.69;5068774;28;20020;-77
2023/03/13 05:30:30;;;;;;;8.75;3.60;;;;;;;11.79;100.00;99704.34;5068754;28;20024;-77
2023/03/13 05:32:56;;;;;;;7.85;3.42;;;;;;;11.82;100.00;99704.03;5068261;28;20646;-77
2023/03/13 05:35:22;;;;;;;9.70;4.22;;;;;;;11.83;100.00;99705.69;5050619;28;20047;-77
2023/03/13 05:37:47;;;;;;;9.60;3.47;;;;;;;11.84;100.00;99696.81;5067107;28;20037;-77
2023/03/13 05:40:13;;;;;;;7.43;3.40;;;;;;;11.86;100.00;99708.03;5070311;28;20553;-76
2023/03/13 05:42:38;;;;;;;6.65;3.20;;;;;;;11.88;100.00;99706.06;5069474;28;20024;-77
2023/03/13 05:45:05;;;;;;;6.55;3.40;;;;;;;11.90;100.00;99705.91;5068998;28;20032;-77
2023/03/13 05:47:30;;;;;;;7.80;3.38;;;;;;;11.88;100.00;99695.53;5071028;28;20530;-77
2023/03/13 05:49:55;;;;;;;8.30;3.58;;;;;;;11.87;100.00;99704.41;5067779;28;20056;-76
2023/03/13 05:52:20;;;;;;;9.23;3.90;;;;;;;11.95;100.00;99700.19;5046971;28;20473;-77
2023/03/13 05:54:46;;;;;;;7.60;3.20;;;;;;;11.93;100.00;99702.97;5058279;28;20021;-77
2023/03/13 05:57:11;;;;;;;7.05;3.38;;;;;;;11.89;100.00;99705.09;5049835;28;20021;-77
2023/03/13 05:59:36;;;;;;;7.00;2.92;;;;;;;11.95;100.00;99708.09;5064241;28;20036;-77
2023/03/13 06:02:02;;;;;;;7.30;3.00;;;;;;;11.96;100.00;99707.13;5068127;28;20029;-77
2023/03/13 06:04:27;;;;;;;6.82;3.10;;;;;;;11.98;100.00;99710.44;5069627;28;20032;-77
2023/03/13 06:06:52;;;;;;;8.93;3.00;;;;;;;11.97;100.00;99714.03;5069142;28;20024;-78
2023/03/13 06:09:18;;;;;;;11.77;3.53;;;;;;;12.01;100.00;99710.13;5069951;28;20020;-77
2023/03/13 06:11:44;;;;;;;7.85;3.28;;;;;;;12.01;100.00;99710.13;5051480;28;20436;-77
2023/03/13 06:14:09;;;;;;;9.98;3.03;;;;;;;12.04;100.00;99709.84;5067860;28;20032;-78
2023/03/13 06:16:34;;;;;;;12.27;3.65;;;;;;;12.05;100.00;99712.34;5068710;28;20036;-78
2023/03/13 06:19:01;;;;;;;6.95;2.90;;;;;;;12.06;100.00;99697.34;5068164;28;20024;-77
2023/03/13 06:21:26;;;;;;;9.02;3.47;;;;;;;12.07;100.00;99699.84;5049986;28;20032;-77
2023/03/13 06:23:54;;;;;;;8.63;3.22;;;;;;;12.05;100.00;99691.25;5070968;28;20497;-77
2023/03/13 06:26:19;;;;;;;12.57;3.15;;;;;;;12.07;100.00;99694.56;5068676;28;20028;-75
2023/03/13 06:28:44;;;;;;;9.20;3.20;;;;;;;12.11;100.00;99697.72;5065957;28;20477;-76
2023/03/13 06:31:10;;;;;;;8.45;3.03;;;;;;;12.14;100.00;99700.06;5056352;28;20021;-77
2023/03/13 06:33:36;;;;;;;10.60;3.20;;;;;;;12.11;100.00;99684.53;5059771;28;20496;-76
2023/03/13 06:36:02;;;;;;;11.05;3.60;;;;;;;12.14;100.00;99690.34;5066454;28;20491;-76
2023/03/13 06:38:28;;;;;;;5.85;2.80;;;;;;;12.15;100.00;99701.72;5067115;28;20113;-75
2023/03/13 06:40:54;;;;;;;9.18;3.35;;;;;;;12.19;100.00;99692.50;5049611;28;20135;-76
2023/03/13 06:43:20;;;;;;;7.63;3.10;;;;;;;12.18;100.00;99691.69;5049629;28;20138;-77
2023/03/13 06:45:45;;;;;;;10.98;3.30;;;;;;;12.21;100.00;99693.19;5068216;28;20028;-77
2023/03/13 06:48:11;;;;;;;9.82;3.83;;;;;;;12.21;100.00;99690.56;5062665;28;20024;-77
2023/03/13 06:50:40;;;;;;;10.70;3.45;;;;;;;12.21;100.00;99690.56;5059465;28;20033;-77
2023/03/13 06:53:06;;;;;;;6.93;3.45;;;;;;;12.21;100.00;99695.81;5068208;28;20447;-77
2023/03/13 06:55:32;;;;;;;8.00;3.10;;;;;;;12.23;100.00;99685.94;5066192;28;20020;-77
2023/03/13 06:57:58;;;;;;;11.02;3.50;;;;;;;12.22;100.00;99686.94;5070028;28;20052;-77
2023/03/13 07:00:24;;;;;;;10.52;3.45;;;;;;;12.25;100.00;99683.97;5068682;28;20115;-77
2023/03/13 07:02:50;;;;;;;10.80;3.17;;;;;;;12.25;100.00;99681.34;5067961;28;20111;-77
2023/03/13 07:05:16;;;;;;;12.00;3.55;;;;;;;12.29;100.00;99682.69;5068195;28;20024;-76
2023/03/13 07:07:42;;;;;;;10.05;3.42;;;;;;;12.32;100.00;99687.66;5069039;28;20485;-76
2023/03/13 07:10:09;;;;;;;9.20;2.90;;;;;;;12.35;100.00;99682.09;5066678;28;20020;-76
2023/03/13 07:12:35;;;;;;;11.95;3.60;;;;;;;12.36;100.00;99683.72;5067631;28;20025;-76
2023/03/13 07:15:00;;;;;;;6.93;3.22;;;;;;;12.39;100.00;99678.16;5068063;28;20036;-76
2023/03/13 07:17:26;;;;;;;12.07;3.63;;;;;;;12.41;100.00;99676.22;5067482;28;20565;-76
2023/03/13 07:19:51;;;;;;;10.05;3.42;;;;;;;12.42;100.00;99666.50;5068601;28;20028;-77
2023/03/13 07:22:17;;;;;;;8.82;3.25;;;;;;;12.43;100.00;99681.34;5050770;28;20027;-76
2023/03/13 07:24:42;;;;;;;7.75;3.05;;;;;;;12.44;100.00;99675.91;5068455;28;20047;-76
2023/03/13 07:27:07;;;;;;;11.43;3.22;;;;;;;12.45;100.00;99669.66;5068846;28;20499;-77
2023/03/13 07:29:33;;;;;;;13.25;3.55;;;;;;;12.46;100.00;99671.31;5050750;28;20086;-76
2023/03/13 07:31:58;;;;;;;10.15;3.20;;;;;;;12.48;100.00;99671.97;5067731;28;20469;-76
2023/03/13 07:34:23;;;;;;;11.40;3.20;;;;;;;12.51;100.00;99671.66;5067696;28;20469;-75
2023/03/13 07:36:49;;;;;;;9.82;3.45;;;;;;;12.56;100.00;99671.19;5067988;28;20108;-76
2023/03/13 07:39:14;;;;;;;7.90;3.30;;;;;;;12.60;100.00;99671.72;5049500;28;20404;-76
2023/03/13 07:41:39;;;;;;;8.43;2.85;;;;;;;12.65;100.00;99672.91;5066815;28;20045;-76
2023/03/13 07:44:05;;;;;;;7.47;3.30;;;;;;;12.65;100.00;99683.44;5049319;28;20481;-78
2023/03/13 07:46:30;;;;;;;12.63;3.53;;;;;;;12.67;100.00;99672.75;5067043;28;20071;-77
2023/03/13 07:48:56;;;;;;;9.25;3.08;;;;;;;12.67;100.00;99691.22;5067686;28;20017;-77
2023/03/13 07:51:25;;;;;;;12.02;3.22;;;;;;;12.64;100.00;99696.81;5068426;28;20036;-75
2023/03/13 07:53:51;;;;;;;8.60;3.10;;;;;;;12.62;100.00;99694.31;5071421;28;20238;-74
2023/03/13 07:56:20;;;;;;;8.50;3.22;;;;;;;12.59;100.00;99683.25;5071489;28;20021;-74
2023/03/13 07:58:49;;;;;;;9.48;3.05;;;;;;;12.55;100.00;99688.84;5070887;28;20032;-75
2023/03/13 08:01:15;;;;;;;10.63;3.45;;;;;;;12.59;100.00;99681.44;5070318;28;20109;-75
2023/03/13 08:03:41;;;;;;;11.75;3.22;;;;;;;12.64;100.00;99681.81;5054356;28;20424;-75
2023/03/13 08:06:12;;;;;;;12.30;2.88;;;;;;;12.75;100.00;99667.50;5052596;28;20021;-75
2023/03/13 08:08:40;;;;;;;9.35;3.17;;;;;;;12.83;100.00;99667.56;5052712;28;20499;-74
2023/03/13 08:11:07;;;;;;;8.32;3.15;;;;;;;12.90;100.00;99665.97;5070325;28;20090;-75
2023/03/13 08:13:34;;;;;;;13.00;3.60;;;;;;;12.97;100.00;99656.41;5069864;28;20441;-74
2023/03/13 08:16:04;;;;;;;9.38;3.05;;;;;;;13.03;100.00;99663.69;5072183;28;20389;-75
2023/03/13 08:18:33;;;;;;;9.93;3.15;;;;;;;13.06;100.00;99662.56;5070534;28;20056;-76
2023/03/13 08:21:04;;;;;;;8.20;3.10;;;;;;;13.08;100.00;99661.41;5070392;28;20085;-76
2023/03/13 08:23:30;;;;;;;10.75;3.47;;;;;;;13.08;100.00;99656.13;5054823;28;20024;-75
2023/03/13 08:26:27;;;;;;;9.82;3.40;;;;;;;13.11;100.00;99655.81;5071993;28;20028;-76
2023/03/13 08:28:58;;;;;;;8.00;2.70;;;;;;;13.12;100.00;99652.19;5066251;28;20039;-79
2023/03/13 08:31:28;;;;;;;9.20;3.10;;;;;;;13.20;99.16;99655.88;5071241;28;20020;-77
2023/03/13 08:33:54;;;;;;;7.22;2.67;;;;;;;13.25;98.32;99643.03;5072657;28;20024;-77
2023/03/13 08:36:22;;;;;;;7.22;2.90;;;;;;;13.30;98.64;99648.66;5078523;28;20032;-76
2023/03/13 08:38:48;;;;;;;8.45;2.90;;;;;;;13.36;98.15;99629.53;5081166;28;20137;-77
2023/03/13 08:41:16;;;;;;;7.90;2.55;;;;;;;13.41;97.14;99627.22;5078879;28;20056;-77
2023/03/13 08:43:41;;;;;;;8.20;2.60;;;;;;;13.47;96.15;99642.44;5072991;28;20046;-77
2023/03/13 08:46:07;;;;;;;11.13;2.33;;;;;;;13.51;95.41;99625.25;5080003;28;20119;-76
2023/03/13 08:48:35;;;;;;;6.88;2.50;;;;;;;13.55;95.54;99650.38;5075975;28;20082;-76
2023/03/13 08:51:08;;;;;;;7.57;2.38;;;;;;;13.61;95.15;99636.53;5080422;28;20027;-76
2023/03/13 08:53:33;;;;;;;;;;;;;;;13.73;96.72;99652.91;5058911;28;20016;-76
2023/03/13 08:55:59;;;;;;;6.20;2.35;;;;;;;13.65;96.18;99634.38;5063477;28;19935;-75
2023/03/13 08:58:25;;;;;;;5.25;2.00;;;;;;;13.65;94.98;99640.50;5052586;28;20016;-76
2023/03/13 09:00:50;;;;;;;7.13;2.33;;;;;;;13.69;94.77;99635.72;5070840;28;20446;-76
2023/03/13 09:03:16;;;;;;;10.43;2.63;;;;;;;13.71;95.06;99634.56;5068577;28;20020;-77
2023/03/13 09:05:42;;;;;;;8.57;2.08;;;;;;;13.74;94.90;99646.63;5067234;28;20028;-76
2023/03/13 09:08:08;;;;;;;6.07;2.25;;;;;;;13.71;94.80;99642.47;5052133;28;20029;-77
2023/03/13 09:10:34;;;;;;;6.18;2.00;;;;;;;13.70;95.32;99638.19;5069061;28;20025;-76
2023/03/13 09:13:00;;;;;;;7.28;2.30;;;;;;;13.71;95.47;99631.91;5070678;28;20035;-77
2023/03/13 09:15:25;;;;;;;7.57;2.38;;;;;;;13.73;96.25;99629.94;5052144;28;20025;-77
2023/03/13 09:17:51;;;;;;;9.60;2.65;;;;;;;13.84;95.70;99627.94;5068911;28;20061;-76
2023/03/13 09:20:17;;;;;;;7.97;2.80;;;;;;;13.97;95.25;99628.28;5054458;28;20047;-76
2023/03/13 09:22:43;;;;;;;8.38;2.85;;;;;;;14.15;94.30;99615.72;5070653;28;20020;-76
2023/03/13 09:25:09;;;;;;;9.25;2.78;;;;;;;14.28;94.17;99608.09;5062594;28;20476;-78
2023/03/13 09:27:34;;;;;;;5.60;2.47;;;;;;;14.43;93.72;99613.59;5085608;28;20037;-77
2023/03/13 09:30:00;;;;;;;8.63;2.47;;;;;;;14.60;92.71;99606.41;5051250;28;20052;-77
2023/03/13 09:32:25;;;;;;;9.30;3.10;;;;;;;14.83;92.30;99604.69;5069333;28;20081;-76
2023/03/13 09:34:50;;;;;;;4.47;2.53;;;;;;;14.98;89.23;99587.09;5070240;28;20063;-76
2023/03/13 09:37:16;;;;;;;6.78;2.60;;;;;;;15.01;88.19;99581.44;5083434;28;20039;-76
2023/03/13 09:39:41;;;;;;;7.07;2.30;;;;;;;15.07;87.16;99579.09;5090259;28;20028;-76
2023/03/13 09:42:15;;;;;;;6.85;2.35;;;;;;;15.16;88.93;99583.34;5079906;28;20037;-76
2023/03/13 09:45:02;;;;;;;7.50;2.28;;;;;;;15.38;87.37;99571.97;5059584;28;20025;-75
2023/03/13 09:47:49;;;;;;;3.35;2.03;;;;;;;15.66;86.47;99567.00;5070521;28;20036;-76
2023/03/13 09:50:24;;;;;;;5.70;2.10;;;;;;;15.63;84.59;99565.53;5069690;28;20032;-76
2023/03/13 09:52:56;;;;;;;7.53;2.22;;;;;;;15.60;84.73;99559.72;5052233;28;20020;-80
2023/03/13 09:55:30;;;;;;;5.35;2.05;;;;;;;15.60;84.13;99560.56;5070047;28;20032;-79
2023/03/13 09:58:03;;;;;;;4.43;2.10;;;;;;;15.60;82.27;99554.44;5067019;28;20104;-76
2023/03/13 10:00:30;;;;;;;;;;;;;;;15.69;85.47;99549.91;5052188;28;20028;-76
2023/03/13 10:03:10;;;;;;;4.28;1.77;;;;;;;15.56;83.95;99564.53;5067627;28;20331;-76
2023/03/13 10:05:42;;;;;;;4.03;1.58;;;;;;;15.36;82.04;99572.13;5069776;28;20120;-75
2023/03/13 10:08:14;;;;;;;5.93;2.00;;;;;;;15.41;82.90;99561.00;5047552;28;20029;-76
2023/03/13 10:10:48;;;;;;;;;;;;;;;15.65;83.88;99555.56;5055006;28;20435;-77
2023/03/13 10:13:36;;;;;;;5.60;1.90;;;;;;;15.57;81.62;99560.88;5081253;28;19896;-76
2023/03/13 10:16:27;;;;;;;6.75;1.75;;;;;;;15.81;79.87;99548.47;5083043;28;20024;-78
2023/03/13 10:18:58;;;;;;;6.25;1.60;;;;;;;16.01;78.51;99546.97;5080878;28;20040;-75
2023/03/13 10:21:31;;;;;;;4.40;1.65;;;;;;;16.02;78.27;99527.41;5080635;28;20024;-80
2023/03/13 10:23:59;;;;;;;;;;;;;;;16.21;80.75;99542.78;5089205;28;20027;-82
2023/03/13 10:26:34;;;;;;;5.32;1.77;;;;;;;16.01;77.37;99535.50;5054199;28;20661;-76
2023/03/13 10:29:25;;;;;;;3.40;1.70;;;;;;;15.84;79.11;99518.94;5083895;28;20598;-77
2023/03/13 10:32:05;;;;;;;4.70;1.70;;;;;;;15.58;78.42;99533.41;5084204;28;20450;-77
2023/03/13 10:35:00;;;;;;;5.28;1.50;;;;;;;15.49;79.65;99525.66;5050508;28;20020;-77
2023/03/13 10:37:31;;;;;;;4.05;1.60;;;;;;;15.52;79.90;99542.03;5064657;28;20032;-77
2023/03/13 10:40:14;;;;;;;4.05;1.60;;;;;;;15.65;79.34;99526.41;5055668;28;20052;-77
2023/03/13 10:42:43;;;;;;;;;;;;;;;15.76;80.96;99537.56;5068775;28;20039;-76
2023/03/13 10:45:17;;;;;;;5.50;1.67;;;;;;;15.78;79.15;99501.09;5055394;28;19966;-76
2023/03/13 10:47:42;;;;;;;3.22;1.40;;;;;;;15.66;78.44;99520.09;5061284;28;20149;-76
2023/03/13 10:50:17;;;;;;;4.07;1.45;;;;;;;15.64;79.78;99526.59;5086090;28;20077;-75
2023/03/13 10:52:46;;;;;;;5.75;1.63;;;;;;;15.58;79.70;99509.53;5054637;28;20500;-77
2023/03/13 10:55:17;;;;;;;3.45;1.58;;;;;;;15.63;80.19;99519.63;5088399;28;20131;-76
2023/03/13 10:57:56;;;;;;;2.63;1.30;;;;;;;15.66;80.26;99506.84;5089146;28;20012;-76
2023/03/13 11:00:25;;;;;;;4.30;1.70;;;;;;;15.69;79.53;99507.47;5074956;28;20055;-75
2023/03/13 11:02:52;;;;;;;3.00;1.38;;;;;;;15.74;80.00;99516.53;5068628;28;20020;-76
2023/03/13 11:05:36;;;;;;;3.42;1.58;;;;;;;15.73;79.76;99506.94;5069881;28;20028;-77
2023/03/13 11:08:19;;;;;;;4.15;1.30;;;;;;;15.69;78.77;99508.31;5069188;28;20115;-77
2023/03/13 11:11:00;;;;;;;6.53;1.85;;;;;;;15.68;78.72;99513.78;5054225;28;20031;-76
2023/03/13 11:13:41;;;;;;;4.65;1.40;;;;;;;15.63;76.37;99507.19;5083721;28;20503;-77
2023/03/13 11:16:20;;;;;;;3.78;1.30;;;;;;;15.65;77.22;99489.28;5063924;28;20103;-76
2023/03/13 11:19:16;;;;;;;5.03;1.20;;;;;;;15.71;77.36;99494.88;5089130;28;20165;-76
2023/03/13 11:22:13;;;;;;;2.67;1.27;;;;;;;15.81;77.59;99503.38;5082570;28;20058;-78
2023/03/13 11:25:01;;;;;;;4.25;1.60;;;;;;;15.95;73.75;99498.09;5069762;28;20068;-77
2023/03/13 11:27:29;;;;;;;5.13;1.55;;;;;;;16.09;70.13;99507.09;5090739;28;20476;-77
2023/03/13 11:30:27;;;;;;;4.70;1.27;;;;;;;16.19;70.86;99481.09;5089214;28;20028;-77
2023/03/13 11:33:03;;;;;;;7.28;1.65;;;;;;;16.18;67.79;99474.16;5070481;28;20052;-77